Time;durP1;ratioP1;P1;durP2;ratioP2;P2;SDS_P1;SDS_P2;PMS_P1;PMS_P2;Temp;Humidity;BMP_temperature;BMP_pressure;BME280_temperature;BME280_humidity;BME280_pressure;Samples;Min_cycle;Max_cycle;Signal;HPM_P1;HPM_P2
2023/12/28 00:00:47;;;;;;;;;;;;;;;;;;5091866;28;19915;-67
2023/12/28 00:03:13;;;;;;;;;;;;;;;;;;5091491;28;19919;-67
2023/12/28 00:05:39;;;;;;;;;;;;;;;;;;5091629;28;20317;-67
2023/12/28 00:08:05;;;;;;;;;;;;;;;;;;5090793;28;20005;-67
2023/12/28 00:10:31;;;;;;;;;;;;;;;;;;5091768;28;19992;-67
2023/12/28 00:12:57;;;;;;;;;;;;;;;;;;5091006;28;20401;-67
2023/12/28 00:15:23;;;;;;;;;;;;;;;;;;5092559;28;19908;-67
2023/12/28 00:17:49;;;;;;;;;;;;;;;;;;5092456;28;19957;-66
2023/12/28 00:20:15;;;;;;;;;;;;;;;;;;5091096;28;19965;-66
2023/12/28 00:22:41;;;;;;;;;;;;;;;;;;5092453;28;20379;-67
2023/12/28 00:25:06;;;;;;;;;;;;;;;;;;5091309;28;20378;-67
2023/12/28 00:27:35;;;;;;;;;;;;;;;;;;5086916;28;19970;-66
2023/12/28 00:30:01;;;;;;;;;;;;;;;;;;5075350;28;20002;-67
2023/12/28 00:32:27;;;;;;;;;;;;;;;;;;5092166;28;20037;-67
2023/12/28 00:34:52;;;;;;;;;;;;;;;;;;5092064;28;19912;-67
2023/12/28 00:37:18;;;;;;;;;;;;;;;;;;5080312;28;20391;-67
2023/12/28 00:39:46;;;;;;;;;;;;;;;;;;5071560;28;19913;-67
2023/12/28 00:42:12;;;;;;;;;;;;;;;;;;5090745;28;19916;-66
2023/12/28 00:44:38;;;;;;;;;;;;;;;;;;5091538;28;19950;-66
2023/12/28 00:47:06;;;;;;;;;;;;;;;;;;5092135;28;19944;-67
2023/12/28 00:49:32;;;;;;;;;;;;;;;;;;5091702;28;19939;-67
2023/12/28 00:51:58;;;;;;;;;;;;;;;;;;5091380;28;19951;-62
2023/12/28 00:54:24;;;;;;;;;;;;;;;;;;5091116;28;19918;-62
2023/12/28 00:56:49;;;;;;;;;;;;;;;;;;5090798;28;19908;-62
2023/12/28 00:59:15;;;;;;;;;;;;;;;;;;5091629;28;20343;-63
2023/12/28 01:01:41;;;;;;;;;;;;;;;;;;5091203;28;19947;-67
2023/12/28 01:04:07;;;;;;;;;;;;;;;;;;5091914;28;19912;-67
2023/12/28 01:06:33;;;;;;;;;;;;;;;;;;5091580;28;20458;-67
2023/12/28 01:08:59;;;;;;;;;;;;;;;;;;5092045;28;19912;-66
2023/12/28 01:11:25;;;;;;;;;;;;;;;;;;5089401;28;20634;-67
2023/12/28 01:13:51;;;;;;;;;;;;;;;;;;5091590;28;19912;-66
2023/12/28 01:16:17;;;;;;;;;;;;;;;;;;5090640;28;19912;-67
2023/12/28 01:18:43;;;;;;;;;;;;;;;;;;5084053;28;19959;-67
2023/12/28 01:21:08;;;;;;;;;;;;;;;;;;5089432;28;20007;-67
2023/12/28 01:23:34;;;;;;;;;;;;;;;;;;5095369;28;20062;-66
2023/12/28 01:26:00;;;;;;;;;;;;;;;;;;5094963;28;19916;-66
2023/12/28 01:28:26;;;;;;;;;;;;;;;;;;5093970;28;19920;-67
2023/12/28 01:30:52;;;;;;;;;;;;;;;;;;5094721;28;20006;-67
2023/12/28 01:33:18;;;;;;;;;;;;;;;;;;5094340;28;19918;-67
2023/12/28 01:35:44;;;;;;;;;;;;;;;;;;5087704;28;20383;-66
2023/12/28 01:38:10;;;;;;;;;;;;;;;;;;5074965;28;19908;-67
2023/12/28 01:40:36;;;;;;;;;;;;;;;;;;5085337;28;20018;-66
2023/12/28 01:43:02;;;;;;;;;;;;;;;;;;5083025;28;20387;-67
2023/12/28 01:45:28;;;;;;;;;;;;;;;;;;5094228;28;19919;-67
2023/12/28 01:47:53;;;;;;;;;;;;;;;;;;5094930;28;19953;-67
2023/12/28 01:50:19;;;;;;;;;;;;;;;;;;5093088;28;19912;-67
2023/12/28 01:52:45;;;;;;;;;;;;;;;;;;5093974;28;19989;-67
2023/12/28 01:55:11;;;;;;;;;;;;;;;;;;5094246;28;20341;-67
2023/12/28 01:57:37;;;;;;;;;;;;;;;;;;5094507;28;19913;-67
2023/12/28 02:00:03;;;;;;;;;;;;;;;;;;5094328;28;19923;-66
2023/12/28 02:02:29;;;;;;;;;;;;;;;;;;5093991;28;19919;-66
2023/12/28 02:04:55;;;;;;;;;;;;;;;;;;5094805;28;20287;-68
2023/12/28 02:07:21;;;;;;;;;;;;;;;;;;5093320;28;19947;-67
2023/12/28 02:09:47;;;;;;;;;;;;;;;;;;5086893;28;19934;-67
2023/12/28 02:12:13;;;;;;;;;;;;;;;;;;5090732;28;19964;-66
2023/12/28 02:14:39;;;;;;;;;;;;;;;;;;5094128;28;20416;-66
2023/12/28 02:17:05;;;;;;;;;;;;;;;;;;5093577;28;19912;-65
2023/12/28 02:19:31;;;;;;;;;;;;;;;;;;5093228;28;19946;-67
2023/12/28 02:21:57;;;;;;;;;;;;;;;;;;5094034;28;19965;-67
2023/12/28 02:24:22;;;;;;;;;;;;;;;;;;5084701;28;20400;-66
2023/12/28 02:26:48;;;;;;;;;;;;;;;;;;5093840;28;19922;-66
2023/12/28 02:29:14;;;;;;;;;;;;;;;;;;5091650;28;19916;-65
2023/12/28 02:31:40;;;;;;;;;;;;;;;;;;5093383;28;19923;-66
2023/12/28 02:34:06;;;;;;;;;;;;;;;;;;5094209;28;19916;-66
2023/12/28 02:36:32;;;;;;;;;;;;;;;;;;5093267;28;19912;-67
2023/12/28 02:38:58;;;;;;;;;;;;;;;;;;5092521;28;20117;-66
2023/12/28 02:41:24;;;;;;;;;;;;;;;;;;5090023;28;19912;-67
2023/12/28 02:43:50;;;;;;;;;;;;;;;;;;5091909;28;19943;-67
2023/12/28 02:46:16;;;;;;;;;;;;;;;;;;5093457;28;19943;-66
2023/12/28 02:48:41;;;;;;;;;;;;;;;;;;5093532;28;20278;-66
2023/12/28 02:51:07;;;;;;;;;;;;;;;;;;5092913;28;20014;-66
2023/12/28 02:53:33;;;;;;;;;;;;;;;;;;5080453;28;19915;-67
2023/12/28 02:55:59;;;;;;;;;;;;;;;;;;5073784;28;19908;-67
2023/12/28 02:58:25;;;;;;;;;;;;;;;;;;5088917;28;20002;-67
2023/12/28 03:00:51;;;;;;;;;;;;;;;;;;5091426;28;20308;-66
2023/12/28 03:03:17;;;;;;;;;;;;;;;;;;5093554;28;20010;-67
2023/12/28 03:05:43;;;;;;;;;;;;;;;;;;5093016;28;19912;-67
2023/12/28 03:08:09;;;;;;;;;;;;;;;;;;5088763;28;20007;-67
2023/12/28 03:10:35;;;;;;;;;;;;;;;;;;5086181;28;19908;-63
2023/12/28 03:13:01;;;;;;;;;;;;;;;;;;5092147;28;19943;-60
2023/12/28 03:15:27;;;;;;;;;;;;;;;;;;5093569;28;20332;-60
2023/12/28 03:17:53;;;;;;;;;;;;;;;;;;5092816;28;19999;-61
2023/12/28 03:20:18;;;;;;;;;;;;;;;;;;5091709;28;19918;-60
2023/12/28 03:22:44;;;;;;;;;;;;;;;;;;5093134;28;20321;-60
2023/12/28 03:25:10;;;;;;;;;;;;;;;;;;5093243;28;19933;-61
2023/12/28 03:27:36;;;;;;;;;;;;;;;;;;5077704;28;19920;-61
2023/12/28 03:30:02;;;;;;;;;;;;;;;;;;5081879;28;19926;-61
2023/12/28 03:32:28;;;;;;;;;;;;;;;;;;5090764;28;19963;-60
2023/12/28 03:34:54;;;;;;;;;;;;;;;;;;5092907;28;19908;-61
2023/12/28 03:37:20;;;;;;;;;;;;;;;;;;5092563;28;20280;-60
2023/12/28 03:39:46;;;;;;;;;;;;;;;;;;5092255;28;19927;-60
2023/12/28 03:42:12;;;;;;;;;;;;;;;;;;5092826;28;20010;-61
2023/12/28 03:44:38;;;;;;;;;;;;;;;;;;5075801;28;19913;-60
2023/12/28 03:47:03;;;;;;;;;;;;;;;;;;5081250;28;20006;-60
2023/12/28 03:49:29;;;;;;;;;;;;;;;;;;5092407;28;19912;-60
2023/12/28 03:51:55;;;;;;;;;;;;;;;;;;5092587;28;20038;-60
2023/12/28 03:54:21;;;;;;;;;;;;;;;;;;5092847;28;19908;-60
2023/12/28 03:56:47;;;;;;;;;;;;;;;;;;5092173;28;19995;-60
2023/12/28 03:59:15;;;;;;;;;;;;;;;;;;5092042;28;19916;-60
2023/12/28 04:01:41;;;;;;;;;;;;;;;;;;5091054;28;19912;-61
2023/12/28 04:04:06;;;;;;;;;;;;;;;;;;5078859;28;19947;-60
2023/12/28 04:06:32;;;;;;;;;;;;;;;;;;5072326;28;19967;-60
2023/12/28 04:08:58;;;;;;;;;;;;;;;;;;5080674;28;20012;-60
2023/12/28 04:11:24;;;;;;;;;;;;;;;;;;5090215;28;19916;-61
2023/12/28 04:13:50;;;;;;;;;;;;;;;;;;5092373;28;19912;-60
2023/12/28 04:16:16;;;;;;;;;;;;;;;;;;5092084;28;19912;-60
2023/12/28 04:18:42;;;;;;;;;;;;;;;;;;5082594;28;20378;-60
2023/12/28 04:21:08;;;;;;;;;;;;;;;;;;5092129;28;19923;-60
2023/12/28 04:23:34;;;;;;;;;;;;;;;;;;5092528;28;19908;-60
2023/12/28 04:26:00;;;;;;;;;;;;;;;;;;5092526;28;20002;-60
2023/12/28 04:28:25;;;;;;;;;;;;;;;;;;5091832;28;20001;-61
2023/12/28 04:30:51;;;;;;;;;;;;;;;;;;5092028;28;19919;-60
2023/12/28 04:33:19;;;;;;;;;;;;;;;;;;5088101;28;20364;-61
2023/12/28 04:35:45;;;;;;;;;;;;;;;;;;5090330;28;19912;-60
2023/12/28 04:38:10;;;;;;;;;;;;;;;;;;5086864;28;19958;-60
2023/12/28 04:40:36;;;;;;;;;;;;;;;;;;5091816;28;19948;-60
2023/12/28 04:43:03;;;;;;;;;;;;;;;;;;5091720;28;20407;-60
2023/12/28 04:45:28;;;;;;;;;;;;;;;;;;5092623;28;19978;-61
2023/12/28 04:47:54;;;;;;;;;;;;;;;;;;5090296;28;20368;-62
2023/12/28 04:50:20;;;;;;;;;;;;;;;;;;5088694;28;20003;-61
2023/12/28 04:52:46;;;;;;;;;;;;;;;;;;5092809;28;20008;-60
2023/12/28 04:55:12;;;;;;;;;;;;;;;;;;5096170;28;19913;-61
2023/12/28 04:57:38;;;;;;;;;;;;;;;;;;5095585;28;19912;-61
2023/12/28 05:00:04;;;;;;;;;;;;;;;;;;5094158;28;19916;-61
2023/12/28 05:02:30;;;;;;;;;;;;;;;;;;5091679;28;20354;-64
2023/12/28 05:04:56;;;;;;;;;;;;;;;;;;5091957;28;19974;-60
2023/12/28 05:07:22;;;;;;;;;;;;;;;;;;5088562;28;19930;-63
2023/12/28 05:09:47;;;;;;;;;;;;;;;;;;5093021;28;19993;-61
2023/12/28 05:12:13;;;;;;;;;;;;;;;;;;5090180;28;19920;-60
2023/12/28 05:14:39;;;;;;;;;;;;;;;;;;5091981;28;19912;-59
2023/12/28 05:17:05;;;;;;;;;;;;;;;;;;5093861;28;19940;-59
2023/12/28 05:19:31;;;;;;;;;;;;;;;;;;5094268;28;19955;-61
2023/12/28 05:21:57;;;;;;;;;;;;;;;;;;5094100;28;20290;-60
2023/12/28 05:24:23;;;;;;;;;;;;;;;;;;5082664;28;19908;-60
2023/12/28 05:26:49;;;;;;;;;;;;;;;;;;5091842;28;19919;-61
2023/12/28 05:29:15;;;;;;;;;;;;;;;;;;5094836;28;20298;-62
2023/12/28 05:31:40;;;;;;;;;;;;;;;;;;5093786;28;19919;-64
2023/12/28 05:34:06;;;;;;;;;;;;;;;;;;5089928;28;19966;-63
2023/12/28 05:36:32;;;;;;;;;;;;;;;;;;5094296;28;20010;-63
2023/12/28 05:38:58;;;;;;;;;;;;;;;;;;5091410;28;19919;-63
2023/12/28 05:41:24;;;;;;;;;;;;;;;;;;5091227;28;20003;-63
2023/12/28 05:43:50;;;;;;;;;;;;;;;;;;5093739;28;20473;-63
2023/12/28 05:46:16;;;;;;;;;;;;;;;;;;5094738;28;19919;-63
2023/12/28 05:48:42;;;;;;;;;;;;;;;;;;5093009;28;19916;-64
2023/12/28 05:51:08;;;;;;;;;;;;;;;;;;5094119;28;20022;-63
2023/12/28 05:53:34;;;;;;;;;;;;;;;;;;5094346;28;19919;-63
2023/12/28 05:56:03;;;;;;;;;;;;;;;;;;5093235;28;19912;-63
2023/12/28 05:58:29;;;;;;;;;;;;;;;;;;5090955;28;19908;-63
2023/12/28 06:00:54;;;;;;;;;;;;;;;;;;5093049;28;19916;-64
2023/12/28 06:03:20;;;;;;;;;;;;;;;;;;5093399;28;19963;-63
2023/12/28 06:05:46;;;;;;;;;;;;;;;;;;5091410;28;20334;-63
2023/12/28 06:08:13;;;;;;;;;;;;;;;;;;5089265;28;19917;-63
2023/12/28 06:10:39;;;;;;;;;;;;;;;;;;5085016;28;20386;-63
2023/12/28 06:13:06;;;;;;;;;;;;;;;;;;5093422;28;19916;-63
2023/12/28 06:15:32;;;;;;;;;;;;;;;;;;5094345;28;20421;-63
2023/12/28 06:17:58;;;;;;;;;;;;;;;;;;5093055;28;20469;-63
2023/12/28 06:20:24;;;;;;;;;;;;;;;;;;5092930;28;19916;-63
2023/12/28 06:22:50;;;;;;;;;;;;;;;;;;5093912;28;19953;-63
2023/12/28 06:25:16;;;;;;;;;;;;;;;;;;5082864;28;20344;-63
2023/12/28 06:27:42;;;;;;;;;;;;;;;;;;5090247;28;19931;-63
2023/12/28 06:30:08;;;;;;;;;;;;;;;;;;5093289;28;19912;-63
2023/12/28 06:32:34;;;;;;;;;;;;;;;;;;5093792;28;19999;-63
2023/12/28 06:35:00;;;;;;;;;;;;;;;;;;5089537;28;20038;-61
2023/12/28 06:37:26;;;;;;;;;;;;;;;;;;5092811;28;20014;-63
2023/12/28 06:39:52;;;;;;;;;;;;;;;;;;5093353;28;20383;-63
2023/12/28 06:42:18;;;;;;;;;;;;;;;;;;5093736;28;19908;-63
2023/12/28 06:44:43;;;;;;;;;;;;;;;;;;5093069;28;19958;-63
2023/12/28 06:47:09;;;;;;;;;;;;;;;;;;5080052;28;19944;-63
2023/12/28 06:49:35;;;;;;;;;;;;;;;;;;5091844;28;19916;-63
2023/12/28 06:52:01;;;;;;;;;;;;;;;;;;5092379;28;19918;-63
2023/12/28 06:54:27;;;;;;;;;;;;;;;;;;5093114;28;19916;-63
2023/12/28 06:56:53;;;;;;;;;;;;;;;;;;5093477;28;20490;-63
2023/12/28 06:59:19;;;;;;;;;;;;;;;;;;5088227;28;19916;-63
2023/12/28 07:01:45;;;;;;;;;;;;;;;;;;5092885;28;19912;-63
2023/12/28 07:04:12;;;;;;;;;;;;;;;;;;5082155;28;19913;-63
2023/12/28 07:06:38;;;;;;;;;;;;;;;;;;5088211;28;19997;-63
2023/12/28 07:09:04;;;;;;;;;;;;;;;;;;5089013;28;19966;-63
2023/12/28 07:11:30;;;;;;;;;;;;;;;;;;5092532;28;19916;-63
2023/12/28 07:13:56;;;;;;;;;;;;;;;;;;5088987;28;19912;-63
2023/12/28 07:16:22;;;;;;;;;;;;;;;;;;5085309;28;20007;-63
2023/12/28 07:18:48;;;;;;;;;;;;;;;;;;5081322;28;19915;-63
2023/12/28 07:21:14;;;;;;;;;;;;;;;;;;5089691;28;20338;-63
2023/12/28 07:23:40;;;;;;;;;;;;;;;;;;5091493;28;19981;-63
2023/12/28 07:26:06;;;;;;;;;;;;;;;;;;5092077;28;20342;-63
2023/12/28 07:28:31;;;;;;;;;;;;;;;;;;5088950;28;19998;-63
2023/12/28 07:30:57;;;;;;;;;;;;;;;;;;5087565;28;19959;-63
2023/12/28 07:33:23;;;;;;;;;;;;;;;;;;5085262;28;19955;-63
2023/12/28 07:35:49;;;;;;;;;;;;;;;;;;5086568;28;19918;-63
2023/12/28 07:38:15;;;;;;;;;;;;;;;;;;5082126;28;19912;-63
2023/12/28 07:40:41;;;;;;;;;;;;;;;;;;5090756;28;19912;-63
2023/12/28 07:43:07;;;;;;;;;;;;;;;;;;5087779;28;20296;-63
2023/12/28 07:45:33;;;;;;;;;;;;;;;;;;5091546;28;19912;-63
2023/12/28 07:48:02;;;;;;;;;;;;;;;;;;5088831;28;19950;-61
2023/12/28 07:50:32;;;;;;;;;;;;;;;;;;5088763;28;19919;-63
2023/12/28 07:52:57;;;;;;;;;;;;;;;;;;5090800;28;19924;-63
2023/12/28 07:55:24;;;;;;;;;;;;;;;;;;5091874;28;19908;-63
2023/12/28 07:57:49;;;;;;;;;;;;;;;;;;5090817;28;19912;-63
2023/12/28 08:00:15;;;;;;;;;;;;;;;;;;5087417;28;19954;-63
2023/12/28 08:02:41;;;;;;;;;;;;;;;;;;5091786;28;19908;-63
2023/12/28 08:05:07;;;;;;;;;;;;;;;;;;5089736;28;19966;-63
2023/12/28 08:07:33;;;;;;;;;;;;;;;;;;5085430;28;19956;-63
2023/12/28 08:09:59;;;;;;;;;;;;;;;;;;5085654;28;20451;-63
2023/12/28 08:12:27;;;;;;;;;;;;;;;;;;5091115;28;19970;-63
2023/12/28 08:14:53;;;;;;;;;;;;;;;;;;5087485;28;19959;-63
2023/12/28 08:17:18;;;;;;;;;;;;;;;;;;5085141;28;19947;-63
2023/12/28 08:19:44;;;;;;;;;;;;;;;;;;5086646;28;19957;-63
2023/12/28 08:22:10;;;;;;;;;;;;;;;;;;5090565;28;19923;-63
2023/12/28 08:24:36;;;;;;;;;;;;;;;;;;5090804;28;20372;-63
2023/12/28 08:27:02;;;;;;;;;;;;;;;;;;5082719;28;19979;-63
2023/12/28 08:29:28;;;;;;;;;;;;;;;;;;5095247;28;19916;-63
2023/12/28 08:31:55;;;;;;;;;;;;;;;;;;5090161;28;20323;-63
2023/12/28 08:34:21;;;;;;;;;;;;;;;;;;5088459;28;19920;-63
2023/12/28 08:36:47;;;;;;;;;;;;;;;;;;5093321;28;20286;-63
2023/12/28 08:39:13;;;;;;;;;;;;;;;;;;5092716;28;19920;-63
2023/12/28 08:41:38;;;;;;;;;;;;;;;;;;5084882;28;19923;-63
2023/12/28 08:44:04;;;;;;;;;;;;;;;;;;5095042;28;20054;-63
2023/12/28 08:46:31;;;;;;;;;;;;;;;;;;5093861;28;19941;-63
2023/12/28 08:48:57;;;;;;;;;;;;;;;;;;5094129;28;19916;-63
2023/12/28 08:51:22;;;;;;;;;;;;;;;;;;5091636;28;19927;-63
2023/12/28 08:53:48;;;;;;;;;;;;;;;;;;5094262;28;19916;-63
2023/12/28 08:56:14;;;;;;;;;;;;;;;;;;5094714;28;19912;-63
2023/12/28 08:58:40;;;;;;;;;;;;;;;;;;5093943;28;19912;-63
2023/12/28 09:01:06;;;;;;;;;;;;;;;;;;5087055;28;19959;-62
2023/12/28 09:03:32;;;;;;;;;;;;;;;;;;5088171;28;19959;-61
2023/12/28 09:05:58;;;;;;;;;;;;;;;;;;5088008;28;19972;-61
2023/12/28 09:08:24;;;;;;;;;;;;;;;;;;5083468;28;20431;-62
2023/12/28 09:10:52;;;;;;;;;;;;;;;;;;5083101;28;19948;-61
2023/12/28 09:13:18;;;;;;;;;;;;;;;;;;5083554;28;19948;-61
2023/12/28 09:15:44;;;;;;;;;;;;;;;;;;5084233;28;19955;-63
2023/12/28 09:18:09;;;;;;;;;;;;;;;;;;5086086;28;19963;-61
2023/12/28 09:20:35;;;;;;;;;;;;;;;;;;5085351;28;19986;-62
2023/12/28 09:23:01;;;;;;;;;;;;;;;;;;5086203;28;19912;-61
2023/12/28 09:25:27;;;;;;;;;;;;;;;;;;5083246;28;19934;-61
2023/12/28 09:27:53;;;;;;;;;;;;;;;;;;5084848;28;20362;-62
2023/12/28 09:30:19;;;;;;;;;;;;;;;;;;5084627;28;19955;-63
2023/12/28 09:32:45;;;;;;;;;;;;;;;;;;5082021;28;20338;-61
2023/12/28 09:35:11;;;;;;;;;;;;;;;;;;5084731;28;19912;-61
2023/12/28 09:37:37;;;;;;;;;;;;;;;;;;5081521;28;19948;-62
2023/12/28 09:40:03;;;;;;;;;;;;;;;;;;5087488;28;19920;-62
2023/12/28 09:42:29;;;;;;;;;;;;;;;;;;5086038;28;20298;-64
2023/12/28 09:44:55;;;;;;;;;;;;;;;;;;5082267;28;19923;-62
2023/12/28 09:47:21;;;;;;;;;;;;;;;;;;5086346;28;20061;-61
2023/12/28 09:49:47;;;;;;;;;;;;;;;;;;5088100;28;19946;-61
2023/12/28 09:52:13;;;;;;;;;;;;;;;;;;5085440;28;19959;-61
2023/12/28 09:54:39;;;;;;;;;;;;;;;;;;5085725;28;19918;-62
2023/12/28 09:57:05;;;;;;;;;;;;;;;;;;5087041;28;19916;-61
2023/12/28 09:59:31;;;;;;;;;;;;;;;;;;5085553;28;19956;-61
2023/12/28 10:01:57;;;;;;;;;;;;;;;;;;5080181;28;19960;-61
2023/12/28 10:04:23;;;;;;;;;;;;;;;;;;5087446;28;19981;-62
2023/12/28 10:06:49;;;;;;;;;;;;;;;;;;5084268;28;20069;-62
2023/12/28 10:09:15;;;;;;;;;;;;;;;;;;5086485;28;20389;-61
2023/12/28 10:11:41;;;;;;;;;;;;;;;;;;5083143;28;20058;-63
2023/12/28 10:14:07;;;;;;;;;;;;;;;;;;5081121;28;19912;-63
2023/12/28 10:16:33;;;;;;;;;;;;;;;;;;5081367;28;20288;-63
2023/12/28 10:18:59;;;;;;;;;;;;;;;;;;5085201;28;19912;-63
2023/12/28 10:21:24;;;;;;;;;;;;;;;;;;5087658;28;19992;-64
2023/12/28 10:23:50;;;;;;;;;;;;;;;;;;5085826;28;20038;-64
2023/12/28 10:26:16;;;;;;;;;;;;;;;;;;5085483;28;19912;-64
2023/12/28 10:28:42;;;;;;;;;;;;;;;;;;5086797;28;19979;-64
2023/12/28 10:31:08;;;;;;;;;;;;;;;;;;5082365;28;20451;-63
2023/12/28 10:33:34;;;;;;;;;;;;;;;;;;5078408;28;19912;-63
2023/12/28 10:36:00;;;;;;;;;;;;;;;;;;5086158;28;19966;-64
2023/12/28 10:38:26;;;;;;;;;;;;;;;;;;5080861;28;19993;-63
2023/12/28 10:40:52;;;;;;;;;;;;;;;;;;5085038;28;20871;-63
2023/12/28 10:43:18;;;;;;;;;;;;;;;;;;5083792;28;19974;-64
2023/12/28 10:45:44;;;;;;;;;;;;;;;;;;5084439;28;19916;-64
2023/12/28 10:48:10;;;;;;;;;;;;;;;;;;5083415;28;19989;-63
2023/12/28 10:50:37;;;;;;;;;;;;;;;;;;5082271;28;20007;-63
2023/12/28 10:53:03;;;;;;;;;;;;;;;;;;5082982;28;19955;-63
2023/12/28 10:55:29;;;;;;;;;;;;;;;;;;5084022;28;20373;-64
2023/12/28 10:57:55;;;;;;;;;;;;;;;;;;5082873;28;19963;-64
2023/12/28 11:00:21;;;;;;;;;;;;;;;;;;5081721;28;19941;-63
2023/12/28 11:02:48;;;;;;;;;;;;;;;;;;5085780;28;19978;-63
2023/12/28 11:05:14;;;;;;;;;;;;;;;;;;5081919;28;19916;-64
2023/12/28 11:07:40;;;;;;;;;;;;;;;;;;5085832;28;19978;-63
2023/12/28 11:10:06;;;;;;;;;;;;;;;;;;5080817;28;20000;-64
2023/12/28 11:12:32;;;;;;;;;;;;;;;;;;5082370;28;19927;-64
2023/12/28 11:14:58;;;;;;;;;;;;;;;;;;5080493;28;19960;-63
2023/12/28 11:17:27;;;;;;;;;;;;;;;;;;5077414;28;20444;-64
2023/12/28 11:19:53;;;;;;;;;;;;;;;;;;5085974;28;19919;-64
2023/12/28 11:22:19;;;;;;;;;;;;;;;;;;5081775;28;19916;-63
2023/12/28 11:24:45;;;;;;;;;;;;;;;;;;5084981;28;19949;-62
2023/12/28 11:27:12;;;;;;;;;;;;;;;;;;5082181;28;19965;-62
2023/12/28 11:29:38;;;;;;;;;;;;;;;;;;5081948;28;19931;-62
2023/12/28 11:32:04;;;;;;;;;;;;;;;;;;5083476;28;19930;-61
2023/12/28 11:34:30;;;;;;;;;;;;;;;;;;5081078;28;20006;-62
2023/12/28 11:36:56;;;;;;;;;;;;;;;;;;5079269;28;20030;-62
2023/12/28 11:39:22;;;;;;;;;;;;;;;;;;5079666;28;20415;-61
2023/12/28 11:41:48;;;;;;;;;;;;;;;;;;5083554;28;19959;-63
2023/12/28 11:44:14;;;;;;;;;;;;;;;;;;5083920;28;20284;-63
2023/12/28 11:46:40;;;;;;;;;;;;;;;;;;5083031;28;19912;-63
2023/12/28 11:49:06;;;;;;;;;;;;;;;;;;5080306;28;20020;-63
2023/12/28 11:51:32;;;;;;;;;;;;;;;;;;5081924;28;20034;-63
2023/12/28 11:53:57;;;;;;;;;;;;;;;;;;5085497;28;20318;-63
2023/12/28 11:56:24;;;;;;;;;;;;;;;;;;5081985;28;20006;-63
2023/12/28 11:58:50;;;;;;;;;;;;;;;;;;5084167;28;19919;-63
2023/12/28 12:01:16;;;;;;;;;;;;;;;;;;5078480;28;20283;-63
2023/12/28 12:03:43;;;;;;;;;;;;;;;;;;5080272;28;19952;-63
2023/12/28 12:06:09;;;;;;;;;;;;;;;;;;5083961;28;19917;-61
2023/12/28 12:08:35;;;;;;;;;;;;;;;;;;5083541;28;19955;-62
2023/12/28 12:11:02;;;;;;;;;;;;;;;;;;5082906;28;19919;-59
2023/12/28 12:13:28;;;;;;;;;;;;;;;;;;5083905;28;20291;-62
2023/12/28 12:15:54;;;;;;;;;;;;;;;;;;5084319;28;19970;-61
2023/12/28 12:18:20;;;;;;;;;;;;;;;;;;5081718;28;19946;-62
2023/12/28 12:20:48;;;;;;;;;;;;;;;;;;5083719;28;19956;-61
2023/12/28 12:23:14;;;;;;;;;;;;;;;;;;5082486;28;19916;-61
2023/12/28 12:25:39;;;;;;;;;;;;;;;;;;5081685;28;20425;-64
2023/12/28 12:28:05;;;;;;;;;;;;;;;;;;5077562;28;19971;-65
2023/12/28 12:30:31;;;;;;;;;;;;;;;;;;5080629;28;19912;-60
2023/12/28 12:32:57;;;;;;;;;;;;;;;;;;5082479;28;19923;-64
2023/12/28 12:35:23;;;;;;;;;;;;;;;;;;5080571;28;19920;-65
2023/12/28 12:37:50;;;;;;;;;;;;;;;;;;5082925;28;19916;-64
2023/12/28 12:40:16;;;;;;;;;;;;;;;;;;5075315;28;19912;-63
2023/12/28 12:42:42;;;;;;;;;;;;;;;;;;5080692;28;19920;-64
2023/12/28 12:45:08;;;;;;;;;;;;;;;;;;5080580;28;19920;-63
2023/12/28 12:47:37;;;;;;;;;;;;;;;;;;5081712;28;19912;-64
2023/12/28 12:50:04;;;;;;;;;;;;;;;;;;5078991;28;19956;-65
2023/12/28 12:52:30;;;;;;;;;;;;;;;;;;5083594;28;19916;-66
2023/12/28 12:54:55;;;;;;;;;;;;;;;;;;5083828;28;19920;-66
2023/12/28 12:57:21;;;;;;;;;;;;;;;;;;5083567;28;20010;-65
2023/12/28 12:59:47;;;;;;;;;;;;;;;;;;5084169;28;19916;-64
2023/12/28 13:02:13;;;;;;;;;;;;;;;;;;5084607;28;19975;-66
2023/12/28 13:04:39;;;;;;;;;;;;;;;;;;5081428;28;19990;-66
2023/12/28 13:07:05;;;;;;;;;;;;;;;;;;5080098;28;19912;-64
2023/12/28 13:09:31;;;;;;;;;;;;;;;;;;5083545;28;19916;-63
2023/12/28 13:11:57;;;;;;;;;;;;;;;;;;5087058;28;19928;-64
2023/12/28 13:14:23;;;;;;;;;;;;;;;;;;5086947;28;20390;-65
2023/12/28 13:16:54;;;;;;;;;;;;;;;;;;5087133;28;19912;-67
2023/12/28 13:19:20;;;;;;;;;;;;;;;;;;5092165;28;19912;-65
2023/12/28 13:21:46;;;;;;;;;;;;;;;;;;5089450;28;19966;-65
2023/12/28 13:24:12;;;;;;;;;;;;;;;;;;5087970;28;20010;-65
2023/12/28 13:26:38;;;;;;;;;;;;;;;;;;5091466;28;19924;-65
2023/12/28 13:29:04;;;;;;;;;;;;;;;;;;5090178;28;19930;-65
2023/12/28 13:31:30;;;;;;;;;;;;;;;;;;5088502;28;19916;-65
2023/12/28 13:33:56;;;;;;;;;;;;;;;;;;5089768;28;20015;-65
2023/12/28 13:36:22;;;;;;;;;;;;;;;;;;5093383;28;20337;-65
2023/12/28 13:38:48;;;;;;;;;;;;;;;;;;5090930;28;19948;-65
2023/12/28 13:41:13;;;;;;;;;;;;;;;;;;5082554;28;19923;-61
2023/12/28 13:43:39;;;;;;;;;;;;;;;;;;5090675;28;20354;-61
2023/12/28 13:46:05;;;;;;;;;;;;;;;;;;5088940;28;19919;-61
2023/12/28 13:48:31;;;;;;;;;;;;;;;;;;5091217;28;19952;-61
2023/12/28 13:50:57;;;;;;;;;;;;;;;;;;5087777;28;19913;-61
2023/12/28 13:53:23;;;;;;;;;;;;;;;;;;5087533;28;19955;-61
2023/12/28 13:55:49;;;;;;;;;;;;;;;;;;5079528;28;19951;-61
2023/12/28 13:58:15;;;;;;;;;;;;;;;;;;5091554;28;19999;-61
2023/12/28 14:00:41;;;;;;;;;;;;;;;;;;5093308;28;19912;-61
2023/12/28 14:03:07;;;;;;;;;;;;;;;;;;5093538;28;19958;-61
2023/12/28 14:05:33;;;;;;;;;;;;;;;;;;5080089;28;19917;-62
2023/12/28 14:07:58;;;;;;;;;;;;;;;;;;5093053;28;20439;-61
2023/12/28 14:10:24;;;;;;;;;;;;;;;;;;5092085;28;19962;-62
2023/12/28 14:12:50;;;;;;;;;;;;;;;;;;5088225;28;20077;-61
2023/12/28 14:15:16;;;;;;;;;;;;;;;;;;5090507;28;20122;-61
2023/12/28 14:17:42;;;;;;;;;;;;;;;;;;5092982;28;19995;-61
2023/12/28 14:20:11;;;;;;;;;;;;;;;;;;5093114;28;20259;-61
2023/12/28 14:22:37;;;;;;;;;;;;;;;;;;5087570;28;20011;-61
2023/12/28 14:25:03;;;;;;;;;;;;;;;;;;5085526;28;19923;-61
2023/12/28 14:27:29;;;;;;;;;;;;;;;;;;5090271;28;19920;-61
2023/12/28 14:29:55;;;;;;;;;;;;;;;;;;5081397;28;20398;-62
2023/12/28 14:32:21;;;;;;;;;;;;;;;;;;5087673;28;19921;-61
2023/12/28 14:34:47;;;;;;;;;;;;;;;;;;5084683;28;19939;-61
2023/12/28 14:37:13;;;;;;;;;;;;;;;;;;5093373;28;19920;-61
2023/12/28 14:39:38;;;;;;;;;;;;;;;;;;5087066;28;20338;-61
2023/12/28 14:42:04;;;;;;;;;;;;;;;;;;5087744;28;19919;-62
2023/12/28 14:44:31;;;;;;;;;;;;;;;;;;5092306;28;19919;-60
2023/12/28 14:46:57;;;;;;;;;;;;;;;;;;5093007;28;19935;-61
2023/12/28 14:49:23;;;;;;;;;;;;;;;;;;5092435;28;20303;-61
2023/12/28 14:51:48;;;;;;;;;;;;;;;;;;5081737;28;20011;-61
2023/12/28 14:54:14;;;;;;;;;;;;;;;;;;5087816;28;19971;-61
2023/12/28 14:56:40;;;;;;;;;;;;;;;;;;5090353;28;20038;-61
2023/12/28 14:59:06;;;;;;;;;;;;;;;;;;5081471;28;19912;-61
2023/12/28 15:01:32;;;;;;;;;;;;;;;;;;5090784;28;19958;-61
2023/12/28 15:03:58;;;;;;;;;;;;;;;;;;5092838;28;20371;-61
2023/12/28 15:06:24;;;;;;;;;;;;;;;;;;5092023;28;20023;-61
2023/12/28 15:08:50;;;;;;;;;;;;;;;;;;5091002;28;19941;-61
2023/12/28 15:11:16;;;;;;;;;;;;;;;;;;5088070;28;19918;-61
2023/12/28 15:13:42;;;;;;;;;;;;;;;;;;5087223;28;19944;-61
2023/12/28 15:16:09;;;;;;;;;;;;;;;;;;5091977;28;20002;-61
2023/12/28 15:18:35;;;;;;;;;;;;;;;;;;5093139;28;20424;-61
2023/12/28 15:21:01;;;;;;;;;;;;;;;;;;5092434;28;19918;-61
2023/12/28 15:23:27;;;;;;;;;;;;;;;;;;5092102;28;19912;-61
2023/12/28 15:25:53;;;;;;;;;;;;;;;;;;5092131;28;20011;-61
2023/12/28 15:28:19;;;;;;;;;;;;;;;;;;5082145;28;20424;-62
2023/12/28 15:30:45;;;;;;;;;;;;;;;;;;5084702;28;19912;-61
2023/12/28 15:33:11;;;;;;;;;;;;;;;;;;5092301;28;19959;-61
2023/12/28 15:35:37;;;;;;;;;;;;;;;;;;5089502;28;19913;-61
2023/12/28 15:38:02;;;;;;;;;;;;;;;;;;5088336;28;20418;-62
2023/12/28 15:40:28;;;;;;;;;;;;;;;;;;5088751;28;19919;-62
2023/12/28 15:42:55;;;;;;;;;;;;;;;;;;5083334;28;19916;-62
2023/12/28 15:45:21;;;;;;;;;;;;;;;;;;5080320;28;19952;-62
2023/12/28 15:47:47;;;;;;;;;;;;;;;;;;5083930;28;19996;-62
2023/12/28 15:50:13;;;;;;;;;;;;;;;;;;5088591;28;19997;-62
2023/12/28 15:52:40;;;;;;;;;;;;;;;;;;5084236;28;19929;-62
2023/12/28 15:55:06;;;;;;;;;;;;;;;;;;5090013;28;19912;-63
2023/12/28 15:57:32;;;;;;;;;;;;;;;;;;5090555;28;19912;-62
2023/12/28 15:59:58;;;;;;;;;;;;;;;;;;5083814;28;19959;-62
2023/12/28 16:02:24;;;;;;;;;;;;;;;;;;5087821;28;19964;-60
2023/12/28 16:04:50;;;;;;;;;;;;;;;;;;5081646;28;19973;-61
2023/12/28 16:07:16;;;;;;;;;;;;;;;;;;5092263;28;19920;-62
2023/12/28 16:09:42;;;;;;;;;;;;;;;;;;5091897;28;19914;-60
2023/12/28 16:12:08;;;;;;;;;;;;;;;;;;5084318;28;20368;-60
2023/12/28 16:14:34;;;;;;;;;;;;;;;;;;5089187;28;19926;-61
2023/12/28 16:17:00;;;;;;;;;;;;;;;;;;5085978;28;20372;-61
2023/12/28 16:19:26;;;;;;;;;;;;;;;;;;5079549;28;19958;-60
2023/12/28 16:21:52;;;;;;;;;;;;;;;;;;5092218;28;19912;-61
2023/12/28 16:24:17;;;;;;;;;;;;;;;;;;5090977;28;19951;-61
2023/12/28 16:26:43;;;;;;;;;;;;;;;;;;5091093;28;20405;-60
2023/12/28 16:29:09;;;;;;;;;;;;;;;;;;5092237;28;20283;-60
2023/12/28 16:31:35;;;;;;;;;;;;;;;;;;5089654;28;19912;-60
2023/12/28 16:34:02;;;;;;;;;;;;;;;;;;5077625;28;20364;-60
2023/12/28 16:36:27;;;;;;;;;;;;;;;;;;5078419;28;19920;-61